Time;durP1;ratioP1;P1;durP2;ratioP2;P2;SDS_P1;SDS_P2;PMS_P1;PMS_P2;Temp;Humidity;BMP_temperature;BMP_pressure;BME280_temperature;BME280_humidity;BME280_pressure;Samples;Min_cycle;Max_cycle;Signal;HPM_P1;HPM_P2
2021/04/18 00:00:20;;;;;;;50.15;29.25;;;;;;;9.05;75.83;101790.91;1709921;82;21373;-73
2021/04/18 00:02:49;;;;;;;48.90;27.73;;;;;;;9.08;76.01;101791.00;1709888;82;21204;-69
2021/04/18 00:05:25;;;;;;;48.00;29.85;;;;;;;9.08;75.95;101789.09;1709773;84;21329;-72
2021/04/18 00:08:04;;;;;;;55.83;27.77;;;;;;;9.09;75.82;101785.25;1709755;82;21393;-72
2021/04/18 00:10:39;;;;;;;44.63;26.50;;;;;;;9.06;75.69;101790.39;1709950;83;21181;-71
2021/04/18 00:13:13;;;;;;;48.92;27.73;;;;;;;9.04;75.77;101786.45;1709776;84;21410;-72
2021/04/18 00:15:47;;;;;;;53.40;28.98;;;;;;;9.02;75.71;101784.45;1709726;82;21422;-70
2021/04/18 00:18:19;;;;;;;57.55;29.40;;;;;;;9.03;75.87;101788.91;1709799;83;21729;-73
2021/04/18 00:20:52;;;;;;;49.90;28.98;;;;;;;9.04;75.78;101785.06;1709756;84;21243;-74
2021/04/18 00:23:25;;;;;;;47.80;27.67;;;;;;;9.05;75.77;101780.39;1710248;84;21240;-74
2021/04/18 00:25:57;;;;;;;42.15;27.27;;;;;;;9.01;75.73;101783.28;1709964;84;21258;-73
2021/04/18 00:28:30;;;;;;;44.67;26.93;;;;;;;8.93;75.82;101783.56;1709881;84;21279;-71
2021/04/18 00:31:03;;;;;;;54.13;30.50;;;;;;;8.89;75.91;101785.93;1710105;84;21208;-73
2021/04/18 00:33:36;;;;;;;51.08;30.40;;;;;;;8.90;75.94;101787.62;1709860;84;21378;-73
2021/04/18 00:36:09;;;;;;;60.92;31.35;;;;;;;8.87;75.85;101785.28;1730367;82;21192;-72
2021/04/18 00:38:43;;;;;;;45.52;29.65;;;;;;;8.84;75.96;101781.59;1740117;81;21760;-72
2021/04/18 00:41:15;;;;;;;53.77;28.30;;;;;;;8.79;75.98;101784.69;1740362;82;21196;-72
2021/04/18 00:43:47;;;;;;;50.88;27.40;;;;;;;8.75;76.04;101783.45;1739860;81;21341;-72
2021/04/18 00:46:20;;;;;;;58.05;31.70;;;;;;;8.70;76.23;101781.33;1740165;82;21338;-73
2021/04/18 00:48:52;;;;;;;63.08;32.88;;;;;;;8.72;76.32;101786.66;1740142;82;21390;-73
2021/04/18 00:51:25;;;;;;;55.10;32.75;;;;;;;8.71;76.27;101787.20;1740003;82;21367;-70
2021/04/18 00:53:57;;;;;;;64.27;33.98;;;;;;;8.69;76.16;101787.11;1740106;82;21438;-73
2021/04/18 00:56:30;;;;;;;68.70;32.00;;;;;;;8.65;76.10;101793.63;1740207;82;21661;-74
2021/04/18 00:59:03;;;;;;;64.10;32.73;;;;;;;8.62;76.16;101791.28;1740088;81;21195;-73
2021/04/18 01:01:35;;;;;;;77.03;35.73;;;;;;;8.60;76.22;101790.66;1740313;81;21450;-73
2021/04/18 01:04:08;;;;;;;72.00;38.30;;;;;;;8.57;76.30;101792.48;1740280;82;21887;-73
2021/04/18 01:06:40;;;;;;;70.05;38.17;;;;;;;8.55;76.22;101793.24;1740112;81;21377;-72
2021/04/18 01:09:15;;;;;;;77.82;35.70;;;;;;;8.52;76.18;101797.81;1739965;81;21362;-73
2021/04/18 01:11:48;;;;;;;80.35;33.80;;;;;;;8.47;76.09;101800.42;1739989;82;21378;-73
2021/04/18 01:14:21;;;;;;;75.75;33.48;;;;;;;8.38;76.18;101798.95;1739909;82;21382;-71
2021/04/18 01:16:53;;;;;;;83.52;37.88;;;;;;;8.32;76.24;101797.61;1740014;81;21717;-71
2021/04/18 01:19:26;;;;;;;73.22;35.52;;;;;;;8.21;76.56;101792.75;1739806;81;21433;-72
2021/04/18 01:22:02;;;;;;;79.20;38.17;;;;;;;8.22;76.75;101799.45;1740144;82;21349;-70
2021/04/18 01:24:39;;;;;;;69.60;37.88;;;;;;;8.22;76.71;101806.89;1737697;82;21804;-71
2021/04/18 01:27:20;;;;;;;65.62;33.67;;;;;;;8.19;76.64;101804.03;1737360;81;21216;-72
2021/04/18 01:29:53;;;;;;;70.45;34.73;;;;;;;8.17;76.63;101803.89;1740030;81;21884;-73
2021/04/18 01:32:26;;;;;;;71.63;35.07;;;;;;;8.13;76.62;101808.15;1740195;82;21401;-73
2021/04/18 01:34:58;;;;;;;74.67;32.45;;;;;;;8.09;77.76;101810.50;1739968;82;21359;-72
2021/04/18 01:37:33;;;;;;;63.60;32.15;;;;;;;8.05;78.45;101809.26;1736506;82;21413;-70
2021/04/18 01:40:08;;;;;;;63.90;31.85;;;;;;;8.00;79.42;101809.57;1735434;83;21808;-72
2021/04/18 01:42:42;;;;;;;67.65;33.15;;;;;;;7.95;80.28;101793.64;1719029;82;21845;-72
2021/04/18 01:45:16;;;;;;;86.37;32.38;;;;;;;7.95;80.89;101800.55;1735363;82;21398;-73
2021/04/18 01:47:49;;;;;;;86.53;36.85;;;;;;;7.95;81.44;101803.31;1735453;83;21405;-72
2021/04/18 01:50:22;;;;;;;55.38;29.87;;;;;;;7.94;81.66;101803.00;1735148;81;21401;-72
2021/04/18 01:52:54;;;;;;;41.58;24.18;;;;;;;7.94;82.41;101799.37;1735775;81;21199;-72
2021/04/18 01:55:28;;;;;;;59.63;21.05;;;;;;;7.95;83.64;101796.41;1735418;81;21931;-72
2021/04/18 01:58:01;;;;;;;81.43;23.60;;;;;;;7.97;84.68;101801.72;1735454;83;21346;-72
2021/04/18 02:00:35;;;;;;;56.73;25.30;;;;;;;7.92;85.70;101803.77;1732748;83;21628;-73
2021/04/18 02:03:08;;;;;;;39.42;20.70;;;;;;;7.87;86.30;101801.31;1735487;82;21203;-73
2021/04/18 02:05:43;;;;;;;77.37;22.70;;;;;;;7.79;86.72;101791.31;1735360;83;21345;-72
2021/04/18 02:08:17;;;;;;;68.40;25.48;;;;;;;7.76;86.95;101791.77;1732269;83;21386;-71
2021/04/18 02:10:51;;;;;;;53.83;25.40;;;;;;;7.80;87.18;101792.19;1735360;83;21319;-71
2021/04/18 02:13:24;;;;;;;50.83;27.13;;;;;;;7.86;87.34;101786.66;1735268;83;21188;-73
2021/04/18 02:16:14;;;;;;;51.80;27.95;;;;;;;7.91;87.14;101784.62;1706180;84;21345;-71
2021/04/18 02:18:48;;;;;;;49.20;27.22;;;;;;;7.95;87.11;101786.72;1703634;83;21208;-72
2021/04/18 02:21:20;;;;;;;82.05;30.62;;;;;;;7.97;87.03;101786.52;1736023;82;21331;-73
2021/04/18 02:23:53;;;;;;;46.20;27.87;;;;;;;7.98;86.86;101783.55;1744603;82;21686;-72
2021/04/18 02:26:25;;;;;;;49.18;27.67;;;;;;;7.96;86.58;101782.06;1736022;82;21209;-73
2021/04/18 02:28:59;;;;;;;50.17;27.42;;;;;;;7.98;86.48;101787.69;1745057;82;21247;-73
2021/04/18 02:31:33;;;;;;;69.32;30.23;;;;;;;7.94;86.22;101786.41;1735899;82;21758;-72
2021/04/18 02:34:06;;;;;;;62.70;32.07;;;;;;;7.96;86.39;101785.66;1744845;81;21389;-72
2021/04/18 02:36:39;;;;;;;47.45;28.77;;;;;;;8.02;86.38;101786.17;1735975;82;21471;-70
2021/04/18 02:39:12;;;;;;;49.33;27.80;;;;;;;8.06;86.08;101786.06;1740206;82;21335;-70
2021/04/18 02:41:45;;;;;;;55.38;30.23;;;;;;;8.03;85.61;101780.95;1710631;84;21190;-73
2021/04/18 02:44:18;;;;;;;64.17;30.47;;;;;;;8.06;85.65;101783.30;1730707;83;21279;-71
2021/04/18 02:46:51;;;;;;;63.52;31.30;;;;;;;8.03;85.46;101778.73;1730353;83;21318;-71
2021/04/18 02:49:24;;;;;;;52.48;28.60;;;;;;;8.04;85.39;101779.91;1730330;83;21722;-72
2021/04/18 02:51:58;;;;;;;44.58;27.50;;;;;;;8.06;85.24;101781.91;1730195;83;21252;-72
2021/04/18 02:54:31;;;;;;;56.25;29.20;;;;;;;8.08;85.10;101780.32;1730366;81;21192;-74
2021/04/18 02:57:06;;;;;;;54.27;29.32;;;;;;;8.16;85.12;101778.69;1730100;83;21432;-73
2021/04/18 02:59:38;;;;;;;62.23;29.23;;;;;;;8.19;84.86;101776.37;1730482;81;21172;-75
2021/04/18 03:02:11;;;;;;;49.45;28.07;;;;;;;8.08;84.43;101772.86;1730664;83;21188;-72
2021/04/18 03:04:47;;;;;;;47.17;27.05;;;;;;;7.96;84.46;101770.45;1730452;81;21681;-73
2021/04/18 03:07:20;;;;;;;57.70;29.77;;;;;;;7.90;84.56;101766.34;1730396;82;21204;-72
2021/04/18 03:09:54;;;;;;;51.20;28.38;;;;;;;7.85;84.45;101768.89;1730361;81;21215;-74
2021/04/18 03:12:26;;;;;;;57.08;32.05;;;;;;;7.77;84.33;101764.98;1730141;82;21346;-73
2021/04/18 03:15:00;;;;;;;47.00;28.30;;;;;;;7.64;84.36;101768.61;1730265;83;21371;-73
2021/04/18 03:17:33;;;;;;;44.95;26.37;;;;;;;7.54;84.32;101768.73;1730503;83;21227;-71
2021/04/18 03:20:08;;;;;;;51.58;30.02;;;;;;;7.43;84.46;101775.77;1713233;83;21341;-74
2021/04/18 03:22:41;;;;;;;58.30;31.05;;;;;;;7.32;84.58;101765.87;1740315;81;21197;-74
2021/04/18 03:25:15;;;;;;;57.85;30.27;;;;;;;7.25;84.88;101767.79;1710617;83;21350;-72
2021/04/18 03:27:49;;;;;;;51.25;28.32;;;;;;;7.19;85.03;101757.59;1730414;81;21199;-74
2021/04/18 03:30:25;;;;;;;48.85;29.55;;;;;;;7.16;85.25;101759.41;1721483;82;21219;-74
2021/04/18 03:32:59;;;;;;;46.00;25.35;;;;;;;7.13;85.43;101762.58;1723436;83;21204;-72
2021/04/18 03:35:32;;;;;;;59.25;30.48;;;;;;;7.17;85.72;101754.73;1723403;83;21217;-73
2021/04/18 03:38:05;;;;;;;44.53;25.32;;;;;;;7.18;85.77;101769.70;1723509;82;21810;-74
2021/04/18 03:40:40;;;;;;;42.50;24.80;;;;;;;7.18;85.78;101770.23;1720372;83;21210;-73
2021/04/18 03:43:13;;;;;;;39.83;23.80;;;;;;;7.09;85.64;101769.58;1720768;82;21391;-72
2021/04/18 03:45:47;;;;;;;44.83;26.40;;;;;;;7.02;85.70;101771.49;1720440;83;21185;-72
2021/04/18 03:48:20;;;;;;;53.33;29.00;;;;;;;7.00;86.00;101761.72;1720566;83;21358;-72
2021/04/18 03:50:52;;;;;;;50.05;28.87;;;;;;;7.08;86.41;101760.98;1720185;82;21190;-73
2021/04/18 03:53:27;;;;;;;42.53;26.68;;;;;;;7.22;86.81;101763.23;1718031;82;21237;-70
2021/04/18 03:56:02;;;;;;;39.20;24.87;;;;;;;7.35;86.67;101766.30;1715092;83;21209;-72
2021/04/18 03:58:37;;;;;;;35.25;22.87;;;;;;;7.46;86.47;101770.32;1728841;81;21849;-72
2021/04/18 04:01:12;;;;;;;37.90;24.85;;;;;;;7.59;86.15;101773.09;1711802;84;21193;-72
2021/04/18 04:03:45;;;;;;;47.93;27.65;;;;;;;7.58;85.71;101779.14;1711977;84;21827;-72
2021/04/18 04:06:21;;;;;;;48.55;27.62;;;;;;;7.55;85.50;101769.91;1707745;84;21194;-72
2021/04/18 04:08:55;;;;;;;46.05;26.10;;;;;;;7.58;85.62;101770.85;1732230;81;21324;-70
2021/04/18 04:11:29;;;;;;;41.02;25.72;;;;;;;7.65;85.71;101772.23;1707872;82;21289;-72
2021/04/18 04:14:02;;;;;;;44.30;28.57;;;;;;;7.82;85.95;101772.94;1712999;84;21261;-70
2021/04/18 04:16:38;;;;;;;44.33;29.37;;;;;;;8.06;86.05;101769.47;1713270;83;21170;-72
2021/04/18 04:19:11;;;;;;;45.35;27.93;;;;;;;8.35;85.81;101784.71;1734385;83;21350;-72
2021/04/18 04:22:01;;;;;;;44.08;26.90;;;;;;;8.59;85.37;101784.83;1713474;84;21344;-74
2021/04/18 04:24:39;;;;;;;45.50;28.07;;;;;;;8.88;84.74;101791.12;1709086;84;21224;-72
2021/04/18 04:27:14;;;;;;;47.48;29.32;;;;;;;9.12;84.16;101785.34;1713609;84;21364;-70
2021/04/18 04:29:49;;;;;;;43.15;27.17;;;;;;;9.43;84.01;101776.43;1734178;83;21363;-73
2021/04/18 04:32:21;;;;;;;41.25;28.12;;;;;;;9.87;83.52;101782.31;1713288;82;21220;-71
2021/04/18 04:34:55;;;;;;;41.73;27.70;;;;;;;10.35;82.68;101784.69;1713543;84;21242;-72
2021/04/18 04:37:27;;;;;;;;;;;;;;;10.80;81.41;101781.30;1715829;84;21728;-72
2021/04/18 04:40:00;;;;;;;42.83;28.55;;;;;;;11.25;80.32;101775.57;1713221;83;20195;-73
2021/04/18 04:42:32;;;;;;;47.25;27.95;;;;;;;11.67;78.95;101778.63;1734210;83;21340;-72
2021/04/18 04:45:06;;;;;;;51.73;31.93;;;;;;;12.04;77.60;101770.89;1713295;84;21218;-74
2021/04/18 04:47:38;;;;;;;82.67;46.63;;;;;;;12.35;76.25;101769.91;1712782;84;21225;-72
2021/04/18 04:50:12;;;;;;;93.62;51.63;;;;;;;12.68;74.71;101770.08;1713099;84;21248;-70
2021/04/18 04:52:45;;;;;;;61.28;38.85;;;;;;;13.01;72.91;101763.22;1713451;84;21742;-73
2021/04/18 04:55:18;;;;;;;112.72;54.60;;;;;;;13.35;70.68;101760.80;1713428;82;21205;-74
2021/04/18 04:57:51;;;;;;;62.13;35.98;;;;;;;13.66;68.37;101760.20;1713463;84;21337;-72
2021/04/18 05:00:24;;;;;;;60.20;35.95;;;;;;;13.92;67.85;101756.69;1732335;81;21166;-72
2021/04/18 05:02:56;;;;;;;57.80;34.50;;;;;;;14.25;67.50;101761.39;1712457;84;21936;-72
2021/04/18 05:05:32;;;;;;;67.00;37.63;;;;;;;14.54;66.37;101758.14;1711684;84;21213;-71
2021/04/18 05:08:05;;;;;;;53.23;35.63;;;;;;;14.82;64.86;101748.15;1711902;84;21206;-74
2021/04/18 05:10:37;;;;;;;58.50;34.92;;;;;;;15.11;63.75;101756.59;1732929;81;21376;-74
2021/04/18 05:13:10;;;;;;;56.05;34.48;;;;;;;15.39;62.76;101743.72;1734292;83;21343;-73
2021/04/18 05:15:43;;;;;;;45.55;30.57;;;;;;;15.52;61.54;101755.87;1734001;82;21182;-74
2021/04/18 05:18:16;;;;;;;53.85;33.48;;;;;;;15.61;60.97;101750.08;1708430;83;21366;-74
2021/04/18 05:20:49;;;;;;;51.53;31.60;;;;;;;15.69;59.42;101755.72;1734502;83;21331;-72
2021/04/18 05:23:21;;;;;;;60.08;33.63;;;;;;;15.71;59.46;101750.71;1733973;83;21569;-73
2021/04/18 05:25:55;;;;;;;44.77;32.80;;;;;;;15.50;58.69;101750.24;1734350;81;21197;-73
2021/04/18 05:28:27;;;;;;;;;;;;;;;15.24;58.92;101750.56;1736844;83;21379;-72
2021/04/18 05:31:00;;;;;;;50.45;33.30;;;;;;;14.99;59.12;101746.65;1733158;83;20615;-70
2021/04/18 05:33:35;;;;;;;76.72;35.78;;;;;;;14.70;59.33;101747.98;1711723;84;21249;-75
2021/04/18 05:36:08;;;;;;;68.57;36.20;;;;;;;14.36;60.10;101755.67;1711984;82;21728;-73
2021/04/18 05:38:41;;;;;;;;;;;;;;;14.02;60.97;101756.00;1714214;84;21178;-74
2021/04/18 05:41:16;;;;;;;57.30;34.05;;;;;;;13.72;61.93;101753.59;1714042;82;20543;-74
2021/04/18 05:43:49;;;;;;;53.58;34.30;;;;;;;13.98;63.41;101754.27;1717512;83;21261;-71
2021/04/18 05:46:24;;;;;;;67.72;36.05;;;;;;;13.98;63.41;101754.27;1716807;83;21233;-73
2021/04/18 05:48:57;;;;;;;59.50;34.15;;;;;;;14.42;63.08;101763.02;1716888;83;21203;-72
2021/04/18 05:51:31;;;;;;;73.57;32.58;;;;;;;14.78;62.11;101760.95;1706597;83;21201;-73
2021/04/18 05:54:05;;;;;;;68.45;35.00;;;;;;;15.09;61.44;101764.38;1717362;83;21206;-72
2021/04/18 05:56:38;;;;;;;53.40;33.40;;;;;;;15.44;60.80;101767.56;1717293;83;21729;-73
2021/04/18 05:59:12;;;;;;;46.08;29.52;;;;;;;15.78;59.55;101763.38;1717550;83;21213;-72
2021/04/18 06:01:44;;;;;;;48.17;26.57;;;;;;;16.07;58.25;101766.09;1717276;83;21205;-75
2021/04/18 06:04:17;;;;;;;40.23;25.88;;;;;;;16.17;57.39;101760.55;1717710;83;21225;-73
2021/04/18 06:06:52;;;;;;;46.08;28.85;;;;;;;16.40;56.48;101758.19;1717228;83;21719;-73
2021/04/18 06:09:25;;;;;;;41.25;23.45;;;;;;;16.74;55.91;101758.06;1717494;83;21758;-75
2021/04/18 06:11:58;;;;;;;34.53;21.73;;;;;;;17.16;54.03;101754.53;1717803;83;21186;-73
2021/04/18 06:14:30;;;;;;;32.37;21.57;;;;;;;17.59;52.03;101749.83;1717762;83;21447;-76
2021/04/18 06:17:04;;;;;;;29.20;18.12;;;;;;;17.93;50.19;101748.68;1717252;83;21209;-77
2021/04/18 06:19:38;;;;;;;31.37;20.08;;;;;;;18.25;48.25;101747.21;1717556;83;21209;-73
2021/04/18 06:22:10;;;;;;;29.55;19.02;;;;;;;18.58;47.06;101745.70;1717890;83;21186;-73
2021/04/18 06:24:46;;;;;;;18.43;12.80;;;;;;;18.90;45.74;101744.72;1717643;83;21207;-73
2021/04/18 06:27:20;;;;;;;19.50;12.23;;;;;;;19.16;43.08;101746.23;1713798;83;21644;-73
2021/04/18 06:29:52;;;;;;;20.10;10.23;;;;;;;19.24;42.21;101744.23;1717554;83;21241;-74
2021/04/18 06:32:25;;;;;;;17.85;10.75;;;;;;;19.38;41.73;101748.10;1717293;83;21225;-75
2021/04/18 06:34:59;;;;;;;17.98;11.30;;;;;;;19.57;40.36;101743.44;1716798;83;21707;-75
2021/04/18 06:37:33;;;;;;;16.77;9.98;;;;;;;19.74;38.37;101743.86;1717288;83;21205;-73
2021/04/18 06:40:10;;;;;;;16.07;8.70;;;;;;;19.80;38.55;101739.86;1717435;83;21233;-74
2021/04/18 06:42:43;;;;;;;12.82;7.70;;;;;;;19.96;37.49;101742.78;1716852;82;21225;-71
2021/04/18 06:45:15;;;;;;;13.35;8.70;;;;;;;19.98;36.55;101739.09;1717935;83;21324;-72
2021/04/18 06:47:48;;;;;;;19.10;9.55;;;;;;;19.94;36.93;101747.30;1717656;82;21403;-72
2021/04/18 06:50:21;;;;;;;14.58;8.80;;;;;;;19.99;35.88;101753.48;1717121;83;21332;-72
2021/04/18 06:52:54;;;;;;;12.10;7.25;;;;;;;19.96;35.33;101755.48;1717006;82;21248;-70
2021/04/18 06:55:28;;;;;;;10.80;7.12;;;;;;;19.95;35.19;101749.57;1717145;82;21344;-76
2021/04/18 06:58:01;;;;;;;13.50;8.10;;;;;;;19.93;35.64;101750.45;1717421;83;21427;-70
2021/04/18 07:00:35;;;;;;;12.80;6.75;;;;;;;19.82;35.52;101744.03;1717796;83;21375;-73
2021/04/18 07:03:22;;;;;;;12.18;7.35;;;;;;;19.78;34.78;101751.42;1716411;83;21348;-72
2021/04/18 07:05:58;;;;;;;14.75;7.65;;;;;;;19.84;35.53;101746.57;1716111;82;21431;-75
2021/04/18 07:08:33;;;;;;;14.60;7.30;;;;;;;19.91;34.61;101749.33;1712244;82;21881;-72
2021/04/18 07:11:20;;;;;;;16.57;8.20;;;;;;;19.90;34.62;101753.84;1690401;83;21264;-72
2021/04/18 07:13:53;;;;;;;14.18;8.73;;;;;;;19.82;34.82;101751.09;1703960;83;21396;-71
2021/04/18 07:16:40;;;;;;;19.13;11.00;;;;;;;19.81;34.37;101745.77;1703354;83;21309;-75
2021/04/18 07:19:08;;;;;;;18.32;11.85;;;;;;;19.71;34.52;101746.70;1703008;83;22416;-74
2021/04/18 07:21:50;;;;;;;14.55;8.78;;;;;;;19.53;34.36;101744.59;1686845;83;21249;-69
2021/04/18 07:24:25;;;;;;;28.42;10.48;;;;;;;19.37;34.46;101749.21;1702328;83;21217;-73
2021/04/18 07:27:08;;;;;;;16.87;9.75;;;;;;;19.13;35.47;101739.21;1705060;83;21382;-71
2021/04/18 07:29:40;;;;;;;18.23;11.40;;;;;;;19.06;35.05;101732.22;1704522;83;21897;-72
2021/04/18 07:32:24;;;;;;;17.23;11.40;;;;;;;18.88;34.72;101728.11;1702727;83;21364;-72
2021/04/18 07:35:00;;;;;;;21.85;12.88;;;;;;;18.57;35.57;101735.58;1680239;84;21415;-70
2021/04/18 07:37:34;;;;;;;19.92;12.07;;;;;;;18.25;36.87;101734.55;1681332;84;21747;-71
2021/04/18 07:40:09;;;;;;;20.90;13.10;;;;;;;18.06;36.99;101726.45;1713885;83;21412;-69
2021/04/18 07:42:45;;;;;;;24.37;13.80;;;;;;;17.83;36.86;101724.80;1713002;83;21217;-73
2021/04/18 07:45:20;;;;;;;28.95;14.30;;;;;;;17.53;36.71;101725.67;1699240;84;21356;-72
2021/04/18 07:47:53;;;;;;;21.10;13.53;;;;;;;17.30;37.07;101726.73;1698104;83;21231;-73
2021/04/18 07:50:26;;;;;;;21.80;12.15;;;;;;;17.16;37.68;101725.06;1698299;84;21382;-75
2021/04/18 07:52:59;;;;;;;17.57;10.95;;;;;;;17.09;37.30;101720.28;1682205;84;21205;-69
2021/04/18 07:55:32;;;;;;;21.05;11.35;;;;;;;16.92;37.48;101715.47;1676928;84;21612;-77
2021/04/18 07:58:06;;;;;;;21.35;10.00;;;;;;;16.78;38.25;101710.66;1676896;85;23537;-70
2021/04/18 08:00:38;;;;;;;20.92;9.48;;;;;;;16.65;37.79;101713.41;1677050;85;21221;-75
2021/04/18 08:03:13;;;;;;;19.07;9.70;;;;;;;16.49;38.19;101715.91;1677165;85;21198;-72
2021/04/18 08:05:48;;;;;;;14.20;6.92;;;;;;;16.43;38.26;101712.79;1678389;84;21268;-72
2021/04/18 08:08:21;;;;;;;15.93;7.90;;;;;;;16.54;38.14;101715.92;1704127;84;21388;-72
2021/04/18 08:10:54;;;;;;;13.35;7.85;;;;;;;16.59;36.83;101711.71;1705321;84;21758;-72
2021/04/18 08:13:28;;;;;;;14.78;8.45;;;;;;;16.52;37.53;101704.13;1705207;84;21226;-71
2021/04/18 08:16:04;;;;;;;12.78;7.42;;;;;;;16.50;37.64;101697.95;1697235;84;21361;-70
2021/04/18 08:18:43;;;;;;;21.50;12.45;;;;;;;16.43;37.38;101707.73;1695412;84;21393;-70
2021/04/18 08:21:39;;;;;;;14.87;8.65;;;;;;;16.30;37.41;101695.05;1695173;84;21199;-72
2021/04/18 08:24:25;;;;;;;16.37;8.23;;;;;;;16.19;37.07;101700.86;1694227;84;21463;-71
2021/04/18 08:27:05;;;;;;;14.55;7.53;;;;;;;15.97;37.67;101696.00;1689144;83;21661;-72
2021/04/18 08:30:04;;;;;;;11.85;6.90;;;;;;;15.89;38.05;101695.66;1702916;83;21230;-70
2021/04/18 08:32:46;;;;;;;13.25;6.78;;;;;;;15.87;37.68;101700.12;1679189;84;21709;-75
2021/04/18 08:35:21;;;;;;;13.83;6.60;;;;;;;15.79;38.33;101689.98;1718726;83;21800;-72
2021/04/18 08:38:15;;;;;;;12.40;6.40;;;;;;;15.72;37.61;101719.64;1682141;83;21268;-74
2021/04/18 08:40:48;;;;;;;8.45;4.72;;;;;;;15.54;38.08;101689.27;1714686;82;21347;-74
2021/04/18 08:43:26;;;;;;;10.72;5.37;;;;;;;15.51;38.16;101684.19;1715203;83;21404;-73
2021/04/18 08:45:59;;;;;;;10.98;5.28;;;;;;;15.62;37.84;101680.36;1708838;84;21208;-73
2021/04/18 08:48:32;;;;;;;13.38;6.33;;;;;;;15.62;37.84;101680.36;1709237;82;21756;-74
2021/04/18 08:51:10;;;;;;;9.40;4.00;;;;;;;15.64;36.02;101675.33;1709222;84;21177;-74
2021/04/18 08:53:57;;;;;;;8.10;4.97;;;;;;;15.60;36.80;101674.20;1708966;82;21728;-75
2021/04/18 08:56:49;;;;;;;6.92;4.72;;;;;;;15.61;36.54;101670.82;1708948;82;21216;-74
2021/04/18 08:59:22;;;;;;;7.22;4.28;;;;;;;15.60;36.87;101667.73;1709099;84;21856;-73
2021/04/18 09:02:08;;;;;;;8.05;4.53;;;;;;;15.55;36.37;101665.76;1709042;82;21762;-73
2021/04/18 09:04:43;;;;;;;8.68;4.62;;;;;;;15.50;38.67;101665.71;1708977;83;21239;-73
2021/04/18 09:07:17;;;;;;;11.48;4.00;;;;;;;15.53;36.61;101669.94;1708945;84;21236;-71
2021/04/18 09:09:50;;;;;;;6.72;3.87;;;;;;;15.30;36.10;101659.94;1708946;82;21729;-73
2021/04/18 09:12:24;;;;;;;7.80;5.42;;;;;;;15.12;36.55;101665.09;1708918;82;21702;-74
2021/04/18 09:14:56;;;;;;;5.45;4.05;;;;;;;14.98;36.83;101673.06;1709182;84;21353;-73
2021/04/18 09:17:32;;;;;;;5.65;3.83;;;;;;;14.89;37.33;101657.89;1709097;84;21308;-71
2021/04/18 09:20:07;;;;;;;6.87;4.25;;;;;;;14.82;37.39;101657.27;1740008;82;21215;-73
2021/04/18 09:22:48;;;;;;;9.15;5.22;;;;;;;14.81;36.92;101657.52;1740350;80;21352;-79
2021/04/18 09:25:25;;;;;;;12.03;5.90;;;;;;;14.72;38.11;101654.36;1787317;79;21771;-81
2021/04/18 09:28:00;;;;;;;11.15;4.00;;;;;;;14.72;38.11;101654.36;1779648;80;21783;-82
2021/04/18 09:30:35;;;;;;;6.80;4.33;;;;;;;14.77;38.24;101644.63;1788285;79;21327;-81
2021/04/18 09:33:13;;;;;;;8.93;4.10;;;;;;;14.81;37.32;101644.41;1779530;80;21839;-79
2021/04/18 09:35:56;;;;;;;7.25;4.05;;;;;;;14.80;37.44;101653.87;1788825;79;21308;-82
2021/04/18 09:39:06;;;;;;;11.15;4.03;;;;;;;14.69;37.22;101649.31;1753901;82;21399;-83
2021/04/18 09:41:44;;;;;;;8.23;4.12;;;;;;;14.63;38.35;101643.92;1774478;78;21383;-76
2021/04/18 09:44:30;;;;;;;5.05;3.52;;;;;;;14.74;38.15;101641.52;1798787;80;21316;-77
2021/04/18 09:47:08;;;;;;;5.35;3.12;;;;;;;14.83;36.47;101638.52;1798772;80;21221;-75
2021/04/18 09:49:47;;;;;;;3.98;2.98;;;;;;;14.86;36.64;101641.62;1798721;80;21308;-74
2021/04/18 09:52:46;;;;;;;7.05;3.30;;;;;;;14.86;35.88;101640.23;1798504;80;21364;-77
2021/04/18 09:58:43;;;;;;;3.95;3.17;;;;;;;14.63;35.58;101638.33;1797993;80;21473;-74
2021/04/18 10:01:32;;;;;;;13.28;2.90;;;;;;;14.55;36.02;101638.81;1798633;80;21328;-75
2021/04/18 10:04:07;;;;;;;4.35;2.95;;;;;;;14.57;36.19;101634.65;1798575;80;21205;-75
2021/04/18 10:06:47;;;;;;;5.33;2.72;;;;;;;14.69;35.57;101646.52;1792630;80;21189;-72
2021/04/18 10:09:20;;;;;;;6.30;3.12;;;;;;;14.76;36.79;101628.97;1798814;80;21316;-71
2021/04/18 10:12:00;;;;;;;5.10;3.35;;;;;;;14.91;35.97;101633.29;1798722;80;21166;-74
2021/04/18 10:14:33;;;;;;;6.80;3.40;;;;;;;15.10;35.92;101636.55;1798519;80;21213;-75
2021/04/18 10:17:07;;;;;;;7.35;3.80;;;;;;;15.22;35.34;101633.83;1798730;80;21376;-76
2021/04/18 10:19:52;;;;;;;6.97;3.45;;;;;;;15.32;36.16;101629.75;1798809;80;21185;-72
2021/04/18 10:22:26;;;;;;;5.42;2.72;;;;;;;15.42;35.53;101640.17;1798742;80;21324;-74
2021/04/18 10:25:00;;;;;;;9.55;3.33;;;;;;;15.45;35.24;101640.48;1798658;80;21881;-76
2021/04/18 10:27:33;;;;;;;5.95;3.05;;;;;;;15.25;35.46;101627.71;1798812;80;21316;-74
2021/04/18 10:30:07;;;;;;;4.83;3.15;;;;;;;15.25;35.46;101627.71;1798909;80;21367;-75
2021/04/18 10:32:40;;;;;;;6.15;2.80;;;;;;;15.20;35.55;101633.81;1798747;80;21333;-74
2021/04/18 10:35:13;;;;;;;6.25;3.75;;;;;;;15.14;35.84;101624.55;1798733;80;21186;-73
2021/04/18 10:37:46;;;;;;;5.62;3.30;;;;;;;15.10;36.03;101630.95;1798779;80;21320;-74
2021/04/18 10:40:22;;;;;;;5.28;2.50;;;;;;;15.04;36.86;101634.23;1798824;80;21220;-72
2021/04/18 10:42:54;;;;;;;4.60;2.65;;;;;;;14.96;37.03;101630.55;1798573;80;21241;-73
2021/04/18 10:45:27;;;;;;;6.87;3.17;;;;;;;14.89;37.38;101636.91;1798883;80;21296;-75
2021/04/18 10:48:00;;;;;;;7.20;3.80;;;;;;;14.82;37.74;101639.63;1798606;80;21675;-73
2021/04/18 10:50:33;;;;;;;6.30;2.77;;;;;;;14.82;37.74;101639.63;1798919;80;21287;-73
2021/04/18 10:53:06;;;;;;;6.30;2.83;;;;;;;14.83;37.72;101633.78;1798731;80;21687;-74
2021/04/18 10:55:41;;;;;;;4.42;2.77;;;;;;;14.87;38.05;101634.95;1794496;80;21320;-74
2021/04/18 10:58:15;;;;;;;8.43;3.30;;;;;;;14.90;37.91;101626.59;1797633;80;21818;-76
2021/04/18 11:00:47;;;;;;;5.15;3.40;;;;;;;14.91;38.09;101637.48;1795729;80;21459;-73
2021/04/18 11:03:20;;;;;;;4.92;3.58;;;;;;;14.87;38.64;101635.49;1795874;80;21320;-73
2021/04/18 11:05:53;;;;;;;6.33;2.87;;;;;;;14.84;38.80;101627.08;1795975;80;21274;-75
2021/04/18 11:08:26;;;;;;;11.03;4.17;;;;;;;14.90;39.19;101624.62;1796009;80;21419;-75
2021/04/18 11:10:59;;;;;;;5.83;3.27;;;;;;;14.99;40.42;101617.44;1795929;80;21687;-73
2021/04/18 11:13:31;;;;;;;6.80;3.10;;;;;;;15.09;40.60;101620.88;1795991;80;22034;-75
2021/04/18 11:16:05;;;;;;;11.55;6.12;;;;;;;15.15;39.48;101633.80;1796055;80;21315;-74
2021/04/18 11:18:38;;;;;;;4.87;3.42;;;;;;;15.12;39.91;101615.59;1795813;80;21209;-73
2021/04/18 11:21:11;;;;;;;8.70;3.10;;;;;;;15.12;40.51;101621.18;1796089;80;21213;-75
2021/04/18 11:23:44;;;;;;;9.23;3.05;;;;;;;15.14;40.30;101611.95;1795789;80;21316;-73
2021/04/18 11:26:16;;;;;;;6.65;3.67;;;;;;;15.19;39.92;101617.59;1796028;80;21308;-74
2021/04/18 11:28:49;;;;;;;7.40;3.90;;;;;;;15.24;40.49;101614.84;1795930;80;21296;-72
2021/04/18 11:31:22;;;;;;;4.57;3.00;;;;;;;15.27;40.01;101611.48;1796039;80;21832;-73
2021/04/18 11:33:54;;;;;;;7.10;3.98;;;;;;;15.27;40.01;101606.47;1795614;80;21162;-71
2021/04/18 11:36:27;;;;;;;6.20;3.30;;;;;;;15.44;40.18;101598.75;1796433;80;21766;-74
2021/04/18 11:39:01;;;;;;;5.30;3.40;;;;;;;15.44;40.18;101598.75;1796029;80;21987;-73
2021/04/18 11:41:35;;;;;;;;;;;;;;;15.45;39.92;101595.69;1798570;80;21297;-73
2021/04/18 11:44:08;;;;;;;6.30;3.85;;;;;;;15.50;40.12;101594.88;1788861;80;20277;-73
2021/04/18 11:46:41;;;;;;;4.22;3.27;;;;;;;15.56;40.52;101586.25;1755423;80;21380;-74
2021/04/18 11:49:15;;;;;;;5.90;3.10;;;;;;;15.61;39.88;101586.82;1788564;80;21189;-77
2021/04/18 11:51:48;;;;;;;;;;;;;;;15.53;39.57;101582.58;1797809;80;21691;-67
2021/04/18 11:54:21;;;;;;;5.50;3.05;;;;;;;15.42;39.67;101577.20;1795904;80;20518;-73
2021/04/18 11:56:53;;;;;;;6.70;3.22;;;;;;;15.38;40.40;101581.09;1795585;80;21182;-75